In Rescue
 
Open Full Screen Window  High Contrast Mode
Wind Gusting 00 knots
08
May 13, 2021 11:20 AM EDT
Weather Information
Wind Direction
  190 °
Wind Speed
  08 kt (9 mph)
Wind Gust
  00 kt (0 mph)
Altimeter
30.34 in
Visibility
10 SM
Temperature
15° C
59° F
Dewpoint
01° C
34° F
Humidity
39%
1hr Rain Fall
00.00 in.
24hr Rain Fall
00.00 in.
Sky Condition
Clear
VFR

METAR KERY 131520Z AUTO 19008KT 10SM CLR 15/01 A3034 RMK AO2 T01460014

FAA Disclaimer: The data displayed is for advisory purposes only and is not to be used for flight planning or operations.